createdAt,value
2019-02-27T00:01:06.173Z,99.90
2019-02-27T00:03:33.683Z,99.90
2019-02-27T00:06:01.243Z,99.90
2019-02-27T00:08:28.803Z,99.90
2019-02-27T00:10:56.049Z,99.90
2019-02-27T00:13:24.882Z,99.90
2019-02-27T00:15:52.714Z,99.90
2019-02-27T00:18:23.765Z,99.90
2019-02-27T00:20:49.807Z,99.90
2019-02-27T00:23:17.332Z,99.90
2019-02-27T00:25:44.576Z,99.90
2019-02-27T00:28:11.795Z,99.90
2019-02-27T00:30:39.395Z,99.90
2019-02-27T00:33:06.715Z,99.90
2019-02-27T00:35:33.930Z,99.90
2019-02-27T00:38:01.141Z,99.90
2019-02-27T00:40:28.362Z,99.90
2019-02-27T00:42:55.884Z,99.90
2019-02-27T00:45:23.123Z,99.90
2019-02-27T00:47:52.813Z,99.90
2019-02-27T00:50:20.181Z,99.90
2019-02-27T00:52:50.869Z,99.90
2019-02-27T00:55:16.563Z,99.90
2019-02-27T00:57:43.804Z,99.90
2019-02-27T01:00:13.568Z,99.90
2019-02-27T01:02:40.924Z,99.90
2019-02-27T01:05:09.123Z,99.90
2019-02-27T01:07:36.697Z,99.90
2019-02-27T01:10:04.800Z,99.90
2019-02-27T01:12:32.074Z,99.90
2019-02-27T01:14:59.288Z,99.90
2019-02-27T01:17:26.804Z,99.90
2019-02-27T01:19:54.015Z,99.90
2019-02-27T01:22:21.621Z,99.90
2019-02-27T01:24:50.202Z,99.90
2019-02-27T01:27:18.283Z,99.90
2019-02-27T01:29:45.832Z,99.90
2019-02-27T01:32:13.068Z,99.90
2019-02-27T01:34:44.291Z,99.90
2019-02-27T01:37:09.736Z,99.90
2019-02-27T01:39:37.296Z,99.90
2019-02-27T01:42:04.855Z,99.90
2019-02-27T01:44:32.080Z,99.90
2019-02-27T01:47:02.129Z,99.90
2019-02-27T01:49:28.445Z,99.90
2019-02-27T01:51:56.007Z,99.90
2019-02-27T01:54:23.223Z,99.90
2019-02-27T01:56:50.493Z,99.90
2019-02-27T01:59:17.976Z,99.90
2019-02-27T02:01:45.089Z,99.90
2019-02-27T02:04:12.676Z,99.90
2019-02-27T02:06:39.895Z,99.90
2019-02-27T02:09:11.391Z,99.90
2019-02-27T02:11:38.616Z,99.90
2019-02-27T02:14:38.036Z,99.90
2019-02-27T02:17:23.200Z,99.90
2019-02-27T02:20:16.525Z,99.90
2019-02-27T02:23:24.002Z,99.90
2019-02-27T02:26:35.804Z,99.90
2019-02-27T02:29:23.909Z,99.90
2019-02-27T02:32:18.156Z,99.90
2019-02-27T02:35:41.822Z,99.90
2019-02-27T02:38:16.210Z,99.90
2019-02-27T02:41:17.676Z,99.90
2019-02-27T02:44:25.344Z,99.90
2019-02-27T02:47:35.824Z,99.90
2019-02-27T02:50:27.677Z,99.90
2019-02-27T02:53:35.712Z,99.90
2019-02-27T02:56:37.562Z,99.90
2019-02-27T03:00:02.400Z,99.90
2019-02-27T03:03:16.693Z,99.90
2019-02-27T03:06:34.727Z,99.90
2019-02-27T03:09:15.985Z,99.90
2019-02-27T03:12:10.938Z,99.90
2019-02-27T03:14:54.208Z,99.90
2019-02-27T03:17:43.726Z,99.90
2019-02-27T03:20:57.317Z,99.90
2019-02-27T03:24:10.465Z,99.90
2019-02-27T03:27:29.609Z,99.90
2019-02-27T03:30:13.973Z,99.90
2019-02-27T03:32:52.142Z,99.90
2019-02-27T03:35:59.909Z,99.90
2019-02-27T03:39:00.317Z,99.90
2019-02-27T03:42:12.002Z,99.90
2019-02-27T03:44:57.162Z,99.90
2019-02-27T03:47:53.050Z,99.90
2019-02-27T03:50:40.471Z,99.90
2019-02-27T03:53:57.652Z,99.90
2019-02-27T03:56:51.000Z,99.90
2019-02-27T03:59:59.640Z,99.90
2019-02-27T04:03:07.722Z,99.90
2019-02-27T04:06:22.079Z,99.90
2019-02-27T04:08:56.868Z,99.90
2019-02-27T04:11:24.205Z,99.90
2019-02-27T04:13:51.464Z,99.90
2019-02-27T04:16:18.731Z,99.90
2019-02-27T04:18:45.947Z,99.90
2019-02-27T04:21:13.800Z,99.90
2019-02-27T04:23:41.023Z,99.90
2019-02-27T04:26:08.279Z,99.90
2019-02-27T04:28:35.518Z,99.90
2019-02-27T04:31:02.827Z,99.90
2019-02-27T04:33:30.046Z,99.90
2019-02-27T04:35:57.609Z,99.90
2019-02-27T04:38:25.057Z,99.90
2019-02-27T04:40:53.957Z,99.90
2019-02-27T04:43:21.175Z,99.90
2019-02-27T04:45:48.625Z,99.90
2019-02-27T04:48:15.955Z,99.90
2019-02-27T04:50:44.166Z,99.90
2019-02-27T04:53:12.104Z,99.90
2019-02-27T04:55:39.402Z,99.90
2019-02-27T04:58:08.896Z,99.90
2019-02-27T05:00:35.881Z,99.90
2019-02-27T05:03:03.111Z,99.90
2019-02-27T05:05:30.332Z,99.90
2019-02-27T05:07:57.552Z,99.90
2019-02-27T05:10:24.788Z,99.90
2019-02-27T05:12:52.012Z,99.90
2019-02-27T05:15:19.237Z,99.90
2019-02-27T05:17:46.461Z,99.90
2019-02-27T05:20:13.786Z,99.90
2019-02-27T05:22:41.263Z,99.90
2019-02-27T05:25:08.552Z,99.90
2019-02-27T05:27:36.048Z,99.90
2019-02-27T05:30:03.954Z,99.90
2019-02-27T05:32:31.271Z,99.90
2019-02-27T05:34:58.575Z,99.90
2019-02-27T05:37:25.813Z,99.90
2019-02-27T05:39:53.330Z,99.90
2019-02-27T05:42:20.600Z,99.90
2019-02-27T05:44:47.862Z,99.90
2019-02-27T05:47:15.087Z,99.90
2019-02-27T05:49:42.659Z,99.90
2019-02-27T05:52:11.805Z,99.90
2019-02-27T05:54:39.263Z,99.90
2019-02-27T05:57:06.573Z,99.90
2019-02-27T05:59:33.797Z,99.90
2019-02-27T06:02:01.047Z,99.90
2019-02-27T06:04:28.604Z,99.90
2019-02-27T06:06:55.747Z,99.90
2019-02-27T06:09:23.365Z,99.90
2019-02-27T06:11:50.877Z,99.90
2019-02-27T06:14:21.161Z,99.90
2019-02-27T06:16:47.281Z,99.90
2019-02-27T06:19:14.548Z,99.90
2019-02-27T06:21:42.137Z,99.90
2019-02-27T06:24:12.596Z,99.90
2019-02-27T06:26:58.183Z,99.90
2019-02-27T06:29:25.318Z,99.90
2019-02-27T06:31:52.532Z,99.90
2019-02-27T06:34:22.331Z,99.90
2019-02-27T06:36:49.814Z,99.90
2019-02-27T06:39:17.372Z,99.90
2019-02-27T06:41:44.593Z,99.90
2019-02-27T06:44:11.816Z,99.90
2019-02-27T06:46:39.046Z,99.90
2019-02-27T06:49:06.996Z,99.90
2019-02-27T06:51:35.758Z,99.90
2019-02-27T06:54:03.851Z,99.90
2019-02-27T06:56:31.408Z,99.90
2019-02-27T06:58:58.628Z,99.90
2019-02-27T07:01:26.226Z,99.90
2019-02-27T07:03:53.459Z,99.90
2019-02-27T07:06:21.530Z,99.90
2019-02-27T07:08:49.512Z,99.90
2019-02-27T07:11:17.069Z,99.90
2019-02-27T07:13:44.729Z,99.90
2019-02-27T07:16:11.948Z,99.90
2019-02-27T07:18:41.871Z,99.90
2019-02-27T07:21:08.669Z,99.90
2019-02-27T07:23:35.920Z,99.90
2019-02-27T07:26:04.503Z,99.90
2019-02-27T07:28:32.040Z,99.90
2019-02-27T07:30:59.613Z,99.90
2019-02-27T07:33:27.148Z,99.90
2019-02-27T07:35:54.374Z,99.90
2019-02-27T07:38:22.280Z,99.90
2019-02-27T07:40:49.628Z,99.90
2019-02-27T07:43:17.261Z,99.90
2019-02-27T07:45:45.466Z,99.90
2019-02-27T07:48:13.529Z,99.90
2019-02-27T07:50:41.108Z,99.90
2019-02-27T07:53:08.327Z,99.90
2019-02-27T07:55:35.575Z,99.90
2019-02-27T07:58:02.799Z,99.90
2019-02-27T08:00:30.401Z,99.90
2019-02-27T08:02:57.612Z,99.90
2019-02-27T08:05:27.978Z,99.90
2019-02-27T08:07:54.616Z,99.90
2019-02-27T08:10:21.979Z,99.90
2019-02-27T08:12:49.227Z,99.90
2019-02-27T08:15:17.016Z,99.90
2019-02-27T08:17:44.264Z,99.90
2019-02-27T08:20:11.645Z,99.90
2019-02-27T08:22:38.865Z,99.90
2019-02-27T08:25:06.689Z,99.90
2019-02-27T08:27:33.908Z,99.90
2019-02-27T08:30:01.148Z,99.90
2019-02-27T08:32:28.399Z,99.90
2019-02-27T08:34:55.649Z,99.90
2019-02-27T08:37:22.885Z,99.90
2019-02-27T08:39:50.420Z,99.90
2019-02-27T08:42:17.640Z,99.90
2019-02-27T08:44:45.802Z,99.90
2019-02-27T08:47:13.977Z,99.90
2019-02-27T08:49:41.228Z,99.90
2019-02-27T08:52:08.728Z,99.90
2019-02-27T08:54:36.285Z,99.90
2019-02-27T08:57:03.512Z,99.90
2019-02-27T08:59:30.767Z,99.90
2019-02-27T09:01:57.981Z,99.90
2019-02-27T09:04:25.208Z,99.90
2019-02-27T09:06:52.848Z,99.90
2019-02-27T09:09:20.074Z,99.90
2019-02-27T09:11:47.659Z,99.90
2019-02-27T09:14:14.889Z,99.90
2019-02-27T09:16:42.109Z,99.90
2019-02-27T09:19:10.157Z,99.90
2019-02-27T09:21:37.903Z,99.90
2019-02-27T09:24:05.128Z,99.90
2019-02-27T09:26:35.827Z,99.90
2019-02-27T09:29:01.808Z,99.90
2019-02-27T09:31:29.468Z,99.90
2019-02-27T09:33:56.703Z,99.90
2019-02-27T09:36:23.960Z,99.90
2019-02-27T09:38:51.198Z,99.90
2019-02-27T09:41:18.824Z,99.90
2019-02-27T09:43:46.464Z,99.90
2019-02-27T09:46:13.793Z,99.90
2019-02-27T09:48:41.355Z,99.90
2019-02-27T09:51:08.628Z,99.90
2019-02-27T09:53:36.859Z,99.90
2019-02-27T09:56:04.868Z,99.90
2019-02-27T09:58:32.417Z,99.90
2019-02-27T10:01:09.681Z,99.90
2019-02-27T10:03:37.256Z,96.70
2019-02-27T10:06:04.523Z,99.90
2019-02-27T10:08:32.062Z,95.20
2019-02-27T10:10:59.366Z,92.50
2019-02-27T10:13:26.636Z,91.80
2019-02-27T10:15:53.899Z,89.10
2019-02-27T10:18:22.060Z,90.40
2019-02-27T10:20:49.587Z,90.00
2019-02-27T10:23:16.808Z,88.50
2019-02-27T10:25:44.202Z,85.80
2019-02-27T10:28:11.496Z,87.20
2019-02-27T10:30:38.784Z,84.40
2019-02-27T10:33:06.327Z,81.30
2019-02-27T10:35:34.827Z,79.40
2019-02-27T10:38:02.400Z,72.50
2019-02-27T10:40:29.657Z,74.10
2019-02-27T10:42:57.284Z,69.00
2019-02-27T10:45:24.835Z,67.10
2019-02-27T10:47:52.068Z,71.10
2019-02-27T10:50:19.340Z,72.00
2019-02-27T10:52:46.578Z,74.40
2019-02-27T10:55:14.910Z,71.60
2019-02-27T10:57:42.184Z,71.90
2019-02-27T11:00:18.167Z,70.70
2019-02-27T11:02:47.917Z,69.70
2019-02-27T11:05:17.795Z,66.50
2019-02-27T11:07:46.520Z,66.30
2019-02-27T11:10:14.197Z,60.10
2019-02-27T11:12:41.420Z,61.00
2019-02-27T11:15:11.474Z,61.70
2019-02-27T11:17:38.701Z,63.10
2019-02-27T11:20:06.847Z,63.00
2019-02-27T11:22:34.096Z,60.20
2019-02-27T11:25:01.655Z,55.80
2019-02-27T11:27:28.913Z,59.00
2019-02-27T11:29:59.628Z,55.60
2019-02-27T11:32:25.331Z,52.40
2019-02-27T11:34:52.549Z,52.60
2019-02-27T11:37:20.065Z,51.50
2019-02-27T11:39:47.630Z,50.90
2019-02-27T11:42:15.182Z,50.40
2019-02-27T11:44:42.833Z,45.60
2019-02-27T11:47:11.365Z,41.30
2019-02-27T11:49:39.400Z,40.60
2019-02-27T11:52:07.161Z,41.60
2019-02-27T11:54:34.389Z,37.50
2019-02-27T11:57:02.075Z,36.90
2019-02-27T11:59:29.552Z,40.40
2019-02-27T12:01:57.094Z,38.60
2019-02-27T12:04:24.751Z,37.80
2019-02-27T12:06:52.311Z,41.40
2019-02-27T12:09:19.664Z,39.90
2019-02-27T12:11:48.819Z,38.20
2019-02-27T12:14:16.071Z,37.80
2019-02-27T12:16:43.773Z,36.60
2019-02-27T12:19:11.434Z,40.20
2019-02-27T12:21:39.148Z,38.10
2019-02-27T12:24:06.384Z,36.00
2019-02-27T12:26:34.428Z,35.40
2019-02-27T12:29:02.898Z,37.20
2019-02-27T12:31:30.225Z,37.00
2019-02-27T12:33:57.457Z,37.90
2019-02-27T12:36:24.989Z,39.20
2019-02-27T12:38:52.215Z,39.60
2019-02-27T12:41:19.772Z,39.10
2019-02-27T12:43:52.317Z,40.00
2019-02-27T12:46:16.505Z,36.40
2019-02-27T12:48:46.356Z,37.10
2019-02-27T12:51:13.203Z,38.50
2019-02-27T12:53:42.324Z,38.90
2019-02-27T12:56:10.249Z,39.30
2019-02-27T12:58:37.478Z,39.70
2019-02-27T13:01:05.611Z,38.50
2019-02-27T13:03:32.835Z,40.60
2019-02-27T13:06:00.898Z,40.50
2019-02-27T13:08:28.995Z,40.50
2019-02-27T13:10:56.211Z,40.50
2019-02-27T13:13:25.944Z,39.70
2019-02-27T13:15:52.865Z,53.30
2019-02-27T13:18:20.098Z,52.80
2019-02-27T13:20:47.319Z,49.00
2019-02-27T13:23:14.851Z,45.20
2019-02-27T13:25:42.120Z,54.20
2019-02-27T13:28:09.635Z,48.10
2019-02-27T13:30:41.301Z,46.30
2019-02-27T13:33:06.300Z,48.10
2019-02-27T13:35:33.559Z,49.50
2019-02-27T13:38:01.104Z,53.50
2019-02-27T13:40:28.370Z,49.40
2019-02-27T13:42:55.912Z,51.30
2019-02-27T13:45:23.882Z,52.40
2019-02-27T13:47:51.450Z,53.30
2019-02-27T13:50:22.312Z,50.20
2019-02-27T13:52:51.662Z,48.00
2019-02-27T13:55:19.018Z,48.90
2019-02-27T13:57:46.598Z,48.20
2019-02-27T14:00:32.228Z,49.10
2019-02-27T14:03:00.837Z,49.30
2019-02-27T14:05:29.513Z,50.80
2019-02-27T14:07:58.466Z,51.40
2019-02-27T14:10:26.786Z,50.10
2019-02-27T14:12:54.383Z,48.90
2019-02-27T14:15:26.779Z,50.70
2019-02-27T14:17:51.047Z,51.20
2019-02-27T14:20:19.201Z,50.70
2019-02-27T14:22:46.496Z,50.50
2019-02-27T14:25:15.919Z,50.20
2019-02-27T14:27:47.243Z,52.30
2019-02-27T14:30:15.679Z,49.80
2019-02-27T14:32:44.979Z,50.40
2019-02-27T14:35:12.359Z,52.90
2019-02-27T14:37:39.496Z,51.20
2019-02-27T14:40:08.840Z,52.10
2019-02-27T14:42:36.067Z,52.10
2019-02-27T14:45:05.914Z,51.30
2019-02-27T14:47:34.332Z,50.90
2019-02-27T14:50:01.891Z,48.70
2019-02-27T14:52:29.443Z,48.50
2019-02-27T14:54:57.103Z,50.10
2019-02-27T14:57:24.325Z,51.80
2019-02-27T14:59:51.655Z,51.60
2019-02-27T15:02:22.010Z,53.00
2019-02-27T15:04:48.052Z,53.30
2019-02-27T15:07:15.620Z,52.50
2019-02-27T15:09:47.724Z,53.40
2019-02-27T15:12:12.376Z,53.50
2019-02-27T15:14:39.597Z,53.50
2019-02-27T15:17:07.190Z,54.40
2019-02-27T15:19:35.477Z,56.40
2019-02-27T15:22:03.224Z,56.60
2019-02-27T15:24:31.946Z,56.80
2019-02-27T15:26:59.979Z,57.10
2019-02-27T15:29:27.208Z,57.80
2019-02-27T15:31:54.803Z,60.70
2019-02-27T15:34:22.668Z,61.70
2019-02-27T15:36:50.219Z,59.30
2019-02-27T15:39:21.108Z,68.90
2019-02-27T15:41:46.995Z,62.10
2019-02-27T15:44:14.219Z,61.50
2019-02-27T15:46:41.441Z,60.70
2019-02-27T15:49:08.659Z,60.30
2019-02-27T15:51:36.492Z,64.00
2019-02-27T15:54:04.057Z,59.10
2019-02-27T15:56:31.611Z,59.80
2019-02-27T15:58:59.379Z,63.00
2019-02-27T16:01:28.930Z,63.30
2019-02-27T16:03:56.249Z,61.60
2019-02-27T16:06:25.554Z,67.30
2019-02-27T16:08:57.074Z,63.40
2019-02-27T16:11:22.808Z,64.00
2019-02-27T16:13:50.374Z,63.30
2019-02-27T16:16:22.424Z,64.10
2019-02-27T16:18:47.125Z,72.80
2019-02-27T16:21:14.372Z,70.30
2019-02-27T16:23:41.930Z,67.20
2019-02-27T16:26:09.251Z,64.50
2019-02-27T16:28:37.092Z,70.90
2019-02-27T16:31:06.206Z,70.00
2019-02-27T16:33:33.511Z,71.30
2019-02-27T16:36:00.759Z,75.20
2019-02-27T16:38:28.333Z,73.90
2019-02-27T16:40:57.399Z,76.60
2019-02-27T16:43:24.620Z,74.70
2019-02-27T16:45:51.836Z,77.80
2019-02-27T16:48:19.067Z,86.20
2019-02-27T16:50:48.163Z,75.90
2019-02-27T16:53:18.644Z,76.90
2019-02-27T16:55:44.623Z,79.00
2019-02-27T16:58:11.844Z,81.60
2019-02-27T17:00:39.464Z,84.10
2019-02-27T17:03:06.994Z,88.10
2019-02-27T17:05:34.304Z,88.00
2019-02-27T17:08:02.754Z,89.20
2019-02-27T17:10:30.570Z,89.90
2019-02-27T17:12:58.129Z,91.60
2019-02-27T17:15:25.500Z,93.00
2019-02-27T17:17:53.385Z,99.90
2019-02-27T17:20:23.981Z,97.40
2019-02-27T17:22:51.168Z,98.40
2019-02-27T17:25:18.387Z,98.90
2019-02-27T17:27:49.925Z,99.20
2019-02-27T17:30:25.549Z,99.80
2019-02-27T17:32:52.862Z,99.90
2019-02-27T17:35:20.591Z,99.90
2019-02-27T17:37:49.324Z,99.90
2019-02-27T17:40:16.943Z,99.90
2019-02-27T17:42:44.518Z,99.90
2019-02-27T17:45:13.865Z,99.90
2019-02-27T17:47:41.463Z,99.90
2019-02-27T17:50:09.432Z,99.90
2019-02-27T17:52:36.805Z,99.90
2019-02-27T17:55:06.683Z,99.90
2019-02-27T17:57:33.631Z,99.90
2019-02-27T18:00:01.207Z,99.90
2019-02-27T18:02:30.193Z,99.90
2019-02-27T18:04:58.469Z,99.90
2019-02-27T18:07:34.099Z,99.90
2019-02-27T18:09:55.123Z,99.90
2019-02-27T18:12:26.750Z,99.90
2019-02-27T18:14:52.502Z,99.90
2019-02-27T18:17:20.059Z,99.90
2019-02-27T18:19:50.037Z,99.90
2019-02-27T18:22:16.466Z,99.90
2019-02-27T18:24:45.930Z,99.90
2019-02-27T18:27:13.200Z,99.90
2019-02-27T18:29:41.183Z,99.90
2019-02-27T18:32:09.565Z,99.90
2019-02-27T18:34:37.063Z,99.90
2019-02-27T18:37:04.627Z,99.90
2019-02-27T18:39:36.276Z,99.90
2019-02-27T18:42:00.964Z,99.90
2019-02-27T18:44:28.190Z,99.90
2019-02-27T18:46:56.227Z,99.90
2019-02-27T18:49:24.971Z,99.90
2019-02-27T18:51:52.196Z,99.90
2019-02-27T18:54:22.838Z,99.90
2019-02-27T18:56:49.625Z,99.90
2019-02-27T18:59:17.168Z,99.90
2019-02-27T19:01:45.247Z,99.90
2019-02-27T19:04:13.746Z,99.90
2019-02-27T19:06:43.118Z,99.90
2019-02-27T19:09:10.588Z,99.90
2019-02-27T19:11:38.128Z,99.90
2019-02-27T19:14:06.416Z,99.90
2019-02-27T19:16:34.199Z,99.90
2019-02-27T19:19:01.420Z,99.90
2019-02-27T19:21:32.781Z,99.90
2019-02-27T19:23:57.791Z,99.90
2019-02-27T19:26:25.327Z,99.90
2019-02-27T19:28:52.688Z,99.90
2019-02-27T19:31:19.977Z,99.90
2019-02-27T19:33:47.704Z,99.90
2019-02-27T19:36:19.220Z,99.90
2019-02-27T19:38:47.347Z,99.90
2019-02-27T19:41:13.338Z,99.90
2019-02-27T19:43:40.564Z,99.90
2019-02-27T19:46:09.896Z,99.90
2019-02-27T19:48:39.728Z,99.90
2019-02-27T19:51:06.953Z,99.90
2019-02-27T19:53:34.173Z,99.90
2019-02-27T19:56:01.764Z,99.90
2019-02-27T19:58:29.096Z,99.90
2019-02-27T20:00:56.994Z,99.90
2019-02-27T20:03:24.217Z,99.90
2019-02-27T20:05:53.230Z,99.90
2019-02-27T20:08:21.008Z,99.90
2019-02-27T20:10:48.740Z,99.90
2019-02-27T20:13:16.061Z,99.90
2019-02-27T20:15:45.642Z,99.90
2019-02-27T20:18:12.981Z,99.90
2019-02-27T20:20:41.219Z,99.90
2019-02-27T20:23:08.911Z,99.90
2019-02-27T20:25:36.468Z,99.90
2019-02-27T20:28:04.037Z,99.90
2019-02-27T20:30:31.272Z,99.90
2019-02-27T20:32:59.882Z,99.90
2019-02-27T20:35:27.615Z,99.90
2019-02-27T20:37:55.495Z,99.90
2019-02-27T20:40:22.711Z,99.90
2019-02-27T20:42:52.070Z,99.90
2019-02-27T20:45:19.403Z,99.90
2019-02-27T20:47:46.624Z,99.90
2019-02-27T20:50:20.888Z,99.90
2019-02-27T20:52:46.558Z,99.90
2019-02-27T20:55:15.988Z,99.90
2019-02-27T20:57:43.289Z,99.90
2019-02-27T21:00:12.388Z,99.90
2019-02-27T21:02:39.644Z,99.90
2019-02-27T21:05:09.565Z,99.90
2019-02-27T21:07:37.879Z,99.90
2019-02-27T21:10:08.265Z,99.90
2019-02-27T21:12:37.340Z,99.90
2019-02-27T21:15:05.053Z,99.90
2019-02-27T21:17:32.620Z,99.90
2019-02-27T21:19:59.848Z,99.90
2019-02-27T21:22:27.766Z,99.90
2019-02-27T21:24:55.731Z,99.90
2019-02-27T21:27:23.365Z,99.90
2019-02-27T21:29:50.754Z,99.90
2019-02-27T21:32:18.619Z,99.90
2019-02-27T21:34:45.938Z,99.90
2019-02-27T21:37:13.500Z,99.90
2019-02-27T21:39:40.728Z,99.90
2019-02-27T21:42:07.952Z,99.90
2019-02-27T21:44:35.173Z,99.90
2019-02-27T21:47:02.387Z,99.90
2019-02-27T21:49:32.284Z,99.90
2019-02-27T21:51:59.171Z,99.90
2019-02-27T21:54:27.023Z,99.90
2019-02-27T21:56:55.180Z,99.90
2019-02-27T21:59:22.620Z,99.90
2019-02-27T22:01:50.118Z,99.90
2019-02-27T22:04:17.673Z,99.90
2019-02-27T22:06:44.897Z,99.90
2019-02-27T22:09:13.659Z,99.90
2019-02-27T22:11:41.249Z,99.90
2019-02-27T22:14:08.466Z,99.90
2019-02-27T22:16:36.088Z,99.90
2019-02-27T22:19:03.316Z,99.90
2019-02-27T22:21:31.340Z,99.90
2019-02-27T22:23:59.785Z,99.90
2019-02-27T22:26:27.095Z,99.90
2019-02-27T22:28:55.160Z,99.90
2019-02-27T22:31:22.600Z,99.90
2019-02-27T22:33:50.123Z,99.90
2019-02-27T22:36:17.685Z,99.90
2019-02-27T22:38:44.988Z,99.90
2019-02-27T22:41:12.217Z,99.90
2019-02-27T22:43:39.739Z,99.90
2019-02-27T22:46:07.030Z,99.90
2019-02-27T22:48:34.305Z,99.90
2019-02-27T22:51:01.636Z,99.90
2019-02-27T22:53:29.383Z,99.90
2019-02-27T22:55:56.703Z,99.90
2019-02-27T22:58:27.444Z,99.90
2019-02-27T23:01:09.758Z,99.90
2019-02-27T23:03:58.601Z,99.90
2019-02-27T23:06:26.384Z,99.90
2019-02-27T23:08:54.431Z,99.90
2019-02-27T23:11:22.719Z,99.90
2019-02-27T23:13:49.960Z,99.90
2019-02-27T23:16:18.559Z,99.90
2019-02-27T23:18:46.121Z,99.90
2019-02-27T23:21:13.786Z,99.90
2019-02-27T23:23:41.003Z,99.90
2019-02-27T23:26:08.613Z,99.90
2019-02-27T23:28:36.149Z,99.90
2019-02-27T23:31:03.709Z,99.90
2019-02-27T23:33:35.882Z,99.90
2019-02-27T23:36:00.065Z,99.90
2019-02-27T23:38:27.307Z,99.90
2019-02-27T23:40:54.527Z,99.90
2019-02-27T23:43:21.800Z,99.90
2019-02-27T23:45:49.378Z,99.90
2019-02-27T23:48:16.699Z,99.90
2019-02-27T23:50:44.181Z,99.90
2019-02-27T23:53:11.740Z,99.90
2019-02-27T23:55:44.206Z,99.90
2019-02-27T23:58:08.202Z,99.90
